createdAt,value
2022-08-17T00:01:53.430Z,21.80
2022-08-17T00:04:25.214Z,21.70
2022-08-17T00:06:57.224Z,21.70
2022-08-17T00:09:28.969Z,21.60
2022-08-17T00:12:40.695Z,21.50
2022-08-17T00:14:55.121Z,21.50
2022-08-17T00:17:30.253Z,21.50
2022-08-17T00:20:04.063Z,21.40
2022-08-17T00:22:46.634Z,21.40
2022-08-17T00:25:20.060Z,21.40
2022-08-17T00:27:53.342Z,21.30
2022-08-17T00:30:26.185Z,21.20
2022-08-17T00:33:15.710Z,21.10
2022-08-17T00:35:49.993Z,21.10
2022-08-17T00:38:23.140Z,21.10
2022-08-17T00:40:59.228Z,21.10
2022-08-17T00:43:35.804Z,21.00
2022-08-17T00:46:10.433Z,21.00
2022-08-17T00:48:43.969Z,21.00
2022-08-17T00:51:22.237Z,21.00
2022-08-17T00:53:58.070Z,20.90
2022-08-17T00:56:33.841Z,20.90
2022-08-17T00:59:08.916Z,20.90
2022-08-17T01:01:41.479Z,20.80
2022-08-17T01:04:13.991Z,20.90
2022-08-17T01:06:48.208Z,20.80
2022-08-17T01:09:21.397Z,20.80
2022-08-17T01:11:53.339Z,20.70
2022-08-17T01:14:26.745Z,20.80
2022-08-17T01:16:58.525Z,20.70
2022-08-17T01:19:32.434Z,20.70
2022-08-17T01:22:16.830Z,20.70
2022-08-17T01:24:57.709Z,20.70
2022-08-17T01:27:29.653Z,20.60
2022-08-17T01:30:57.948Z,20.60
2022-08-17T01:32:58.943Z,20.60
2022-08-17T01:35:31.088Z,20.60
2022-08-17T01:38:05.082Z,20.60
2022-08-17T01:40:39.219Z,20.50
2022-08-17T01:43:14.378Z,20.40
2022-08-17T01:45:49.321Z,20.30
2022-08-17T01:48:38.024Z,20.30
2022-08-17T01:51:09.828Z,20.20
2022-08-17T01:53:52.640Z,20.20
2022-08-17T01:56:25.813Z,20.20
2022-08-17T01:58:57.745Z,20.10
2022-08-17T02:01:31.926Z,20.10
2022-08-17T02:04:05.622Z,20.00
2022-08-17T02:06:45.400Z,19.90
2022-08-17T02:09:29.863Z,19.90
2022-08-17T02:12:38.124Z,19.80
2022-08-17T02:14:55.562Z,19.80
2022-08-17T02:17:55.281Z,19.80
2022-08-17T02:20:41.809Z,19.80
2022-08-17T02:23:15.481Z,19.80
2022-08-17T02:25:49.615Z,19.70
2022-08-17T02:28:21.356Z,19.70
2022-08-17T02:31:02.643Z,19.70
2022-08-17T02:33:42.765Z,19.70
2022-08-17T02:36:15.430Z,19.70
2022-08-17T02:38:47.638Z,19.60
2022-08-17T02:41:20.835Z,19.60
2022-08-17T02:43:53.515Z,19.60
2022-08-17T02:46:25.660Z,19.60
2022-08-17T02:48:57.504Z,19.60
2022-08-17T02:51:29.296Z,19.60
2022-08-17T02:54:39.132Z,19.60
2022-08-17T02:56:54.153Z,19.60
2022-08-17T02:59:26.150Z,19.50
2022-08-17T03:01:57.903Z,19.50
2022-08-17T03:04:30.334Z,19.40
2022-08-17T03:07:02.101Z,19.30
2022-08-17T03:09:34.200Z,19.30
2022-08-17T03:12:09.695Z,19.30
2022-08-17T03:14:42.906Z,19.20
2022-08-17T03:17:15.891Z,19.30
2022-08-17T03:19:49.504Z,19.20
2022-08-17T03:22:36.933Z,19.20
2022-08-17T03:25:12.674Z,19.20
2022-08-17T03:27:48.219Z,19.20
2022-08-17T03:30:24.462Z,19.20
2022-08-17T03:33:00.041Z,19.20
2022-08-17T03:35:33.772Z,19.20
2022-08-17T03:38:06.079Z,19.20
2022-08-17T03:40:57.221Z,19.20
2022-08-17T03:43:34.411Z,19.20
2022-08-17T03:46:34.030Z,19.20
2022-08-17T03:49:27.003Z,19.20
2022-08-17T03:52:17.369Z,19.20
2022-08-17T03:55:07.846Z,19.10
2022-08-17T03:57:39.935Z,19.00
2022-08-17T04:00:14.362Z,19.00
2022-08-17T04:02:46.401Z,19.00
2022-08-17T04:05:18.320Z,19.00
2022-08-17T04:07:51.698Z,19.00
2022-08-17T04:10:26.377Z,19.00
2022-08-17T04:12:58.372Z,18.90
2022-08-17T04:15:33.299Z,18.80
2022-08-17T04:18:07.325Z,18.70
2022-08-17T04:20:39.397Z,18.70
2022-08-17T04:23:13.088Z,18.60
2022-08-17T04:25:46.397Z,18.60
2022-08-17T04:28:19.253Z,18.60
2022-08-17T04:30:52.355Z,18.50
2022-08-17T04:33:24.840Z,18.40
2022-08-17T04:35:59.768Z,18.30
2022-08-17T04:38:35.113Z,18.30
2022-08-17T04:41:25.814Z,18.30
2022-08-17T04:43:58.449Z,18.30
2022-08-17T04:46:33.273Z,18.40
2022-08-17T04:49:06.006Z,18.50
2022-08-17T04:51:39.035Z,18.50
2022-08-17T04:54:18.609Z,18.50
2022-08-17T04:56:50.423Z,18.50
2022-08-17T04:59:22.237Z,18.60
2022-08-17T05:01:55.187Z,18.60
2022-08-17T05:04:34.389Z,18.70
2022-08-17T05:07:06.876Z,18.70
2022-08-17T05:09:38.528Z,18.80
2022-08-17T05:12:10.120Z,18.90
2022-08-17T05:14:41.803Z,18.90
2022-08-17T05:17:15.053Z,19.00
2022-08-17T05:19:51.756Z,19.10
2022-08-17T05:22:23.728Z,19.10
2022-08-17T05:24:55.473Z,19.20
2022-08-17T05:27:27.263Z,19.20
2022-08-17T05:30:07.354Z,19.30
2022-08-17T05:32:40.558Z,19.40
2022-08-17T05:35:12.186Z,19.40
2022-08-17T05:37:44.293Z,19.50
2022-08-17T05:40:16.345Z,19.60
2022-08-17T05:42:48.663Z,19.60
2022-08-17T05:45:39.891Z,19.70
2022-08-17T05:48:15.692Z,19.80
2022-08-17T05:50:54.166Z,19.80
2022-08-17T05:53:37.268Z,19.90
2022-08-17T05:56:29.957Z,20.00
2022-08-17T05:59:14.116Z,20.00
2022-08-17T06:01:53.155Z,20.10
2022-08-17T06:04:36.059Z,20.20
2022-08-17T06:07:17.279Z,20.30
2022-08-17T06:09:54.974Z,20.30
2022-08-17T06:12:38.830Z,20.40
2022-08-17T06:15:23.689Z,20.50
2022-08-17T06:17:59.785Z,20.60
2022-08-17T06:20:43.785Z,20.70
2022-08-17T06:23:25.971Z,20.70
2022-08-17T06:26:03.735Z,20.80
2022-08-17T06:28:41.228Z,20.80
2022-08-17T06:31:22.210Z,20.90
2022-08-17T06:33:54.570Z,20.90
2022-08-17T06:36:42.313Z,21.00
2022-08-17T06:39:27.009Z,21.00
2022-08-17T06:43:02.042Z,21.00
2022-08-17T06:45:07.085Z,21.10
2022-08-17T06:47:42.211Z,21.10
2022-08-17T06:50:20.388Z,21.20
2022-08-17T06:53:05.005Z,21.20
2022-08-17T06:55:45.065Z,21.30
2022-08-17T06:58:22.177Z,21.40
2022-08-17T07:00:59.073Z,21.50
2022-08-17T07:03:38.284Z,21.60
2022-08-17T07:06:14.673Z,21.70
2022-08-17T07:08:58.050Z,21.80
2022-08-17T07:11:35.949Z,21.90
2022-08-17T07:14:19.954Z,22.10
2022-08-17T07:16:54.842Z,22.20
2022-08-17T07:19:31.608Z,22.30
2022-08-17T07:22:14.210Z,22.40
2022-08-17T07:24:51.451Z,22.50
2022-08-17T07:27:27.505Z,22.60
2022-08-17T07:30:08.048Z,22.60
2022-08-17T07:32:45.872Z,22.70
2022-08-17T07:35:21.973Z,22.80
2022-08-17T07:38:25.748Z,22.90
2022-08-17T07:41:06.547Z,22.90
2022-08-17T07:43:46.925Z,23.10
2022-08-17T07:46:39.814Z,23.10
2022-08-17T07:49:24.893Z,23.20
2022-08-17T07:52:24.083Z,23.40
2022-08-17T07:54:52.837Z,23.40
2022-08-17T07:57:34.053Z,23.50
2022-08-17T08:00:23.853Z,23.60
2022-08-17T08:03:26.134Z,23.70
2022-08-17T08:06:01.141Z,23.80
2022-08-17T08:08:37.014Z,23.90
2022-08-17T08:11:11.956Z,23.90
2022-08-17T08:13:45.638Z,24.00
2022-08-17T08:16:25.935Z,24.10
2022-08-17T08:18:59.791Z,24.10
2022-08-17T08:21:35.004Z,24.20
2022-08-17T08:24:15.212Z,24.20
2022-08-17T08:26:50.290Z,24.20
2022-08-17T08:29:29.613Z,24.30
2022-08-17T08:32:03.816Z,24.30
2022-08-17T08:34:44.575Z,24.40
2022-08-17T08:37:44.802Z,24.40
2022-08-17T08:40:32.006Z,24.50
2022-08-17T08:43:11.526Z,24.50
2022-08-17T08:45:49.486Z,24.50
2022-08-17T08:48:56.475Z,24.50
2022-08-17T08:51:21.335Z,24.60
2022-08-17T08:53:57.149Z,24.60
2022-08-17T08:56:34.188Z,24.70
2022-08-17T08:59:20.374Z,24.70
2022-08-17T09:02:03.526Z,24.80
2022-08-17T09:05:13.320Z,24.90
2022-08-17T09:07:56.229Z,24.90
2022-08-17T09:10:39.414Z,25.00
2022-08-17T09:13:28.138Z,25.10
2022-08-17T09:16:06.833Z,25.10
2022-08-17T09:19:00.512Z,25.20
2022-08-17T09:21:48.053Z,25.20
2022-08-17T09:24:26.493Z,25.20
2022-08-17T09:27:02.333Z,25.20
2022-08-17T09:29:38.957Z,25.20
2022-08-17T09:32:17.543Z,25.20
2022-08-17T09:34:54.759Z,25.30
2022-08-17T09:37:32.358Z,25.30
2022-08-17T09:40:13.626Z,25.40
2022-08-17T09:42:48.959Z,25.40
2022-08-17T09:45:32.295Z,25.40
2022-08-17T09:48:08.267Z,25.40
2022-08-17T09:51:01.625Z,25.40
2022-08-17T09:53:39.067Z,25.40
2022-08-17T09:56:47.043Z,25.50
2022-08-17T09:59:40.418Z,25.60
2022-08-17T10:02:40.379Z,25.60
2022-08-17T10:05:17.844Z,25.70
2022-08-17T10:08:07.043Z,25.70
2022-08-17T10:10:52.218Z,25.80
2022-08-17T10:13:39.502Z,25.80
2022-08-17T10:16:19.478Z,25.80
2022-08-17T10:19:02.677Z,25.90
2022-08-17T10:22:00.850Z,25.90
2022-08-17T10:25:21.508Z,25.90
2022-08-17T10:27:54.387Z,25.90
2022-08-17T10:30:30.654Z,25.90
2022-08-17T10:33:06.983Z,25.90
2022-08-17T10:35:48.872Z,26.00
2022-08-17T10:38:37.107Z,26.00
2022-08-17T10:41:27.012Z,26.00
2022-08-17T10:44:38.694Z,26.00
2022-08-17T10:47:08.233Z,26.00
2022-08-17T10:49:47.655Z,26.00
2022-08-17T10:52:48.650Z,26.00
2022-08-17T10:55:20.720Z,25.90
2022-08-17T10:58:20.978Z,25.90
2022-08-17T11:01:03.009Z,25.90
2022-08-17T11:03:35.085Z,25.90
2022-08-17T11:06:17.844Z,25.90
2022-08-17T11:09:29.595Z,25.90
2022-08-17T11:12:19.820Z,26.00
2022-08-17T11:15:26.375Z,26.00
2022-08-17T11:18:18.052Z,26.00
2022-08-17T11:21:13.162Z,26.00
2022-08-17T11:23:59.404Z,25.80
2022-08-17T11:26:34.455Z,25.60
2022-08-17T11:29:16.591Z,25.40
2022-08-17T11:32:02.928Z,25.20
2022-08-17T11:34:35.470Z,25.10
2022-08-17T11:37:35.747Z,25.00
2022-08-17T11:40:24.665Z,24.90
2022-08-17T11:43:25.640Z,24.80
2022-08-17T11:46:13.550Z,24.80
2022-08-17T11:49:19.987Z,24.70
2022-08-17T11:52:13.049Z,24.70
2022-08-17T11:54:46.451Z,24.70
2022-08-17T11:58:01.826Z,24.70
2022-08-17T12:00:56.438Z,24.80
2022-08-17T12:03:55.842Z,24.80
2022-08-17T12:06:39.860Z,24.90
2022-08-17T12:09:17.106Z,24.90
2022-08-17T12:12:12.445Z,24.90
2022-08-17T12:15:09.481Z,24.90
2022-08-17T12:17:47.336Z,24.90
2022-08-17T12:20:26.045Z,24.90
2022-08-17T12:23:10.278Z,24.90
2022-08-17T12:25:49.390Z,25.00
2022-08-17T12:28:24.645Z,25.00
2022-08-17T12:30:59.650Z,25.10
2022-08-17T12:33:31.700Z,25.10
2022-08-17T12:36:08.636Z,25.20
2022-08-17T12:38:41.753Z,25.20
2022-08-17T12:41:28.944Z,25.30
2022-08-17T12:44:03.187Z,25.30
2022-08-17T12:46:51.495Z,25.40
2022-08-17T12:49:29.495Z,25.40
2022-08-17T12:52:12.213Z,25.50
2022-08-17T12:55:02.906Z,25.60
2022-08-17T12:57:42.450Z,25.60
2022-08-17T13:00:17.662Z,25.70
2022-08-17T13:02:52.454Z,25.70
2022-08-17T13:05:27.580Z,25.80
2022-08-17T13:08:04.486Z,25.90
2022-08-17T13:10:37.691Z,25.90
2022-08-17T13:13:18.237Z,25.90
2022-08-17T13:15:55.722Z,26.00
2022-08-17T13:18:40.025Z,26.10
2022-08-17T13:21:27.541Z,26.10
2022-08-17T13:24:01.777Z,26.10
2022-08-17T13:26:35.456Z,26.20
2022-08-17T13:29:08.871Z,26.20
2022-08-17T13:31:52.450Z,26.20
2022-08-17T13:34:33.307Z,26.30
2022-08-17T13:37:18.710Z,26.40
2022-08-17T13:39:58.082Z,26.40
2022-08-17T13:42:51.648Z,26.50
2022-08-17T13:45:50.681Z,26.60
2022-08-17T13:48:24.871Z,26.70
2022-08-17T13:51:05.479Z,26.80
2022-08-17T13:53:51.597Z,26.90
2022-08-17T13:56:44.770Z,27.10
2022-08-17T13:59:36.405Z,27.30
2022-08-17T14:02:21.032Z,27.80
2022-08-17T14:04:52.939Z,28.40
2022-08-17T14:07:32.156Z,28.70
2022-08-17T14:10:09.259Z,29.00
2022-08-17T14:12:43.574Z,29.20
2022-08-17T14:15:18.180Z,29.40
2022-08-17T14:17:50.663Z,29.80
2022-08-17T14:20:26.009Z,30.20
2022-08-17T14:23:00.726Z,30.60
2022-08-17T14:25:32.824Z,30.90
2022-08-17T14:28:07.045Z,31.10
2022-08-17T14:30:40.632Z,31.30
2022-08-17T14:33:12.769Z,31.40
2022-08-17T14:35:44.590Z,31.60
2022-08-17T14:38:16.577Z,31.70
2022-08-17T14:40:48.310Z,31.80
2022-08-17T14:43:21.419Z,31.80
2022-08-17T14:45:53.320Z,31.90
2022-08-17T14:48:25.424Z,32.00
2022-08-17T14:50:57.742Z,32.20
2022-08-17T14:53:29.941Z,32.50
2022-08-17T14:56:02.032Z,32.70
2022-08-17T14:58:35.372Z,33.00
2022-08-17T15:01:11.366Z,33.30
2022-08-17T15:03:43.769Z,33.40
2022-08-17T15:06:16.437Z,33.50
2022-08-17T15:08:49.309Z,33.50
2022-08-17T15:11:21.136Z,33.50
2022-08-17T15:13:54.426Z,33.50
2022-08-17T15:16:26.942Z,33.50
2022-08-17T15:18:58.847Z,33.30
2022-08-17T15:21:30.968Z,33.20
2022-08-17T15:24:03.068Z,33.20
2022-08-17T15:26:36.091Z,33.10
2022-08-17T15:29:10.194Z,33.10
2022-08-17T15:31:42.039Z,33.00
2022-08-17T15:34:14.365Z,32.90
2022-08-17T15:36:49.632Z,32.70
2022-08-17T15:39:22.046Z,32.60
2022-08-17T15:41:58.376Z,32.50
2022-08-17T15:44:34.865Z,32.40
2022-08-17T15:47:07.164Z,32.30
2022-08-17T15:49:39.499Z,32.20
2022-08-17T15:52:17.189Z,32.10
2022-08-17T15:54:50.596Z,32.00
2022-08-17T15:57:24.625Z,31.90
2022-08-17T15:59:58.638Z,31.90
2022-08-17T16:03:44.836Z,31.80
2022-08-17T16:05:31.121Z,31.80
2022-08-17T16:08:03.790Z,31.80
2022-08-17T16:10:36.366Z,31.80
2022-08-17T16:13:17.648Z,31.80
2022-08-17T16:15:57.054Z,31.80
2022-08-17T16:18:33.629Z,31.70
2022-08-17T16:21:27.526Z,31.60
2022-08-17T16:24:02.739Z,31.50
2022-08-17T16:26:36.340Z,31.40
2022-08-17T16:29:08.501Z,31.30
2022-08-17T16:31:42.471Z,31.30
2022-08-17T16:34:18.000Z,31.20
2022-08-17T16:36:55.779Z,31.10
2022-08-17T16:39:32.681Z,31.00
2022-08-17T16:42:05.610Z,30.90
2022-08-17T16:44:37.233Z,30.90
2022-08-17T16:47:10.513Z,30.70
2022-08-17T16:49:43.114Z,30.60
2022-08-17T16:52:32.876Z,30.50
2022-08-17T16:55:07.590Z,30.40
2022-08-17T16:57:50.032Z,30.30
2022-08-17T17:00:22.481Z,30.30
2022-08-17T17:02:56.418Z,30.20
2022-08-17T17:05:33.312Z,30.10
2022-08-17T17:08:08.837Z,30.00
2022-08-17T17:10:43.012Z,29.90
2022-08-17T17:13:24.389Z,29.80
2022-08-17T17:15:58.717Z,29.70
2022-08-17T17:18:42.593Z,29.50
2022-08-17T17:21:16.199Z,29.40
2022-08-17T17:23:52.091Z,29.30
2022-08-17T17:26:28.637Z,29.30
2022-08-17T17:29:16.327Z,29.20
2022-08-17T17:31:50.902Z,29.00
2022-08-17T17:34:25.909Z,29.00
2022-08-17T17:37:03.130Z,28.90
2022-08-17T17:39:41.542Z,28.80
2022-08-17T17:42:20.333Z,28.70
2022-08-17T17:44:58.970Z,28.60
2022-08-17T17:47:31.186Z,28.50
2022-08-17T17:50:05.507Z,28.40
2022-08-17T17:52:46.214Z,28.30
2022-08-17T17:55:44.416Z,28.20
2022-08-17T17:58:27.427Z,28.10
2022-08-17T18:01:13.727Z,28.00
2022-08-17T18:03:59.102Z,27.90
2022-08-17T18:06:39.687Z,27.80
2022-08-17T18:09:18.119Z,27.70
2022-08-17T18:12:03.422Z,27.60
2022-08-17T18:14:51.889Z,27.50
2022-08-17T18:17:23.658Z,27.50
2022-08-17T18:19:55.396Z,27.30
2022-08-17T18:22:28.581Z,27.20
2022-08-17T18:25:00.194Z,27.10
2022-08-17T18:27:36.936Z,27.00
2022-08-17T18:30:26.475Z,26.90
2022-08-17T18:33:19.100Z,26.90
2022-08-17T18:35:59.412Z,26.80
2022-08-17T18:38:36.381Z,26.80
2022-08-17T18:41:19.180Z,26.80
2022-08-17T18:44:00.639Z,26.80
2022-08-17T18:46:36.499Z,26.70
2022-08-17T18:49:26.598Z,26.60
2022-08-17T18:52:10.853Z,26.50
2022-08-17T18:55:01.594Z,26.50
2022-08-17T18:57:35.739Z,26.40
2022-08-17T19:00:12.941Z,26.30
2022-08-17T19:02:53.806Z,26.30
2022-08-17T19:05:33.745Z,26.20
2022-08-17T19:08:19.689Z,26.10
2022-08-17T19:10:56.147Z,26.10
2022-08-17T19:13:31.356Z,26.00
2022-08-17T19:16:16.034Z,25.90
2022-08-17T19:18:55.984Z,25.90
2022-08-17T19:21:34.230Z,25.80
2022-08-17T19:24:07.772Z,25.70
2022-08-17T19:26:54.369Z,25.60
2022-08-17T19:29:37.030Z,25.60
2022-08-17T19:32:10.220Z,25.80
2022-08-17T19:34:44.367Z,26.10
2022-08-17T19:37:30.432Z,26.30
2022-08-17T19:40:24.519Z,26.50
2022-08-17T19:43:18.155Z,26.70
2022-08-17T19:46:01.037Z,27.00
2022-08-17T19:48:45.504Z,27.30
2022-08-17T19:51:26.255Z,27.50
2022-08-17T19:54:07.098Z,27.60
2022-08-17T19:56:47.428Z,27.70
2022-08-17T19:59:35.789Z,27.90
2022-08-17T20:02:19.583Z,28.00
2022-08-17T20:04:53.037Z,28.10
2022-08-17T20:07:34.230Z,28.10
2022-08-17T20:10:11.936Z,28.10
2022-08-17T20:12:44.535Z,28.00
2022-08-17T20:15:27.085Z,28.00
2022-08-17T20:18:02.299Z,28.10
2022-08-17T20:20:43.477Z,28.10
2022-08-17T20:23:34.770Z,28.20
2022-08-17T20:26:19.075Z,28.20
2022-08-17T20:29:36.821Z,28.20
2022-08-17T20:32:24.085Z,28.20
2022-08-17T20:35:22.314Z,28.20
2022-08-17T20:37:58.178Z,28.10
2022-08-17T20:40:35.157Z,28.10
2022-08-17T20:43:50.870Z,28.00
2022-08-17T20:46:34.337Z,28.00
2022-08-17T20:49:18.077Z,27.90
2022-08-17T20:52:02.746Z,27.80
2022-08-17T20:54:47.671Z,27.90
2022-08-17T20:57:48.368Z,27.90
2022-08-17T21:00:40.625Z,27.80
2022-08-17T21:03:50.234Z,27.60
2022-08-17T21:06:25.759Z,27.20
2022-08-17T21:09:18.682Z,26.80
2022-08-17T21:12:04.601Z,26.50
2022-08-17T21:14:50.745Z,26.20
2022-08-17T21:17:44.763Z,25.90
2022-08-17T21:20:32.805Z,25.60
2022-08-17T21:23:21.781Z,25.40
2022-08-17T21:26:14.425Z,25.20
2022-08-17T21:29:01.880Z,25.00
2022-08-17T21:32:18.510Z,24.80
2022-08-17T21:35:25.124Z,24.70
2022-08-17T21:38:02.860Z,24.50
2022-08-17T21:40:34.768Z,24.40
2022-08-17T21:43:23.238Z,24.30
2022-08-17T21:46:01.442Z,24.20
2022-08-17T21:48:42.821Z,24.10
2022-08-17T21:51:19.390Z,24.10
2022-08-17T21:53:53.105Z,24.30
2022-08-17T21:56:28.795Z,24.50
2022-08-17T21:59:04.214Z,24.70
2022-08-17T22:01:39.574Z,25.00
2022-08-17T22:04:20.462Z,25.20
2022-08-17T22:06:57.587Z,25.50
2022-08-17T22:09:32.089Z,25.70
2022-08-17T22:12:08.982Z,25.90
2022-08-17T22:14:52.667Z,26.10
2022-08-17T22:17:29.373Z,26.30
2022-08-17T22:20:14.155Z,26.40
2022-08-17T22:23:24.850Z,26.60
2022-08-17T22:26:00.073Z,26.80
2022-08-17T22:28:40.010Z,26.80
2022-08-17T22:31:13.297Z,26.80
2022-08-17T22:33:48.992Z,26.80
2022-08-17T22:36:24.994Z,26.90
2022-08-17T22:38:58.110Z,27.00
2022-08-17T22:41:36.420Z,27.00
2022-08-17T22:44:13.961Z,27.10
2022-08-17T22:47:11.391Z,27.10
2022-08-17T22:49:54.067Z,27.10
2022-08-17T22:52:32.032Z,27.10
2022-08-17T22:55:25.679Z,27.10
2022-08-17T22:58:16.017Z,27.00
2022-08-17T23:00:48.812Z,26.70
2022-08-17T23:03:22.125Z,26.40
2022-08-17T23:06:04.138Z,26.20
2022-08-17T23:08:47.909Z,26.10
2022-08-17T23:11:19.571Z,26.00
2022-08-17T23:14:08.303Z,25.90
2022-08-17T23:16:43.165Z,25.90
2022-08-17T23:19:15.733Z,25.90
2022-08-17T23:21:55.255Z,25.90
2022-08-17T23:24:28.287Z,26.00
2022-08-17T23:26:59.928Z,26.00
2022-08-17T23:29:31.543Z,26.10
2022-08-17T23:32:04.734Z,26.20
2022-08-17T23:34:37.093Z,26.20
2022-08-17T23:37:10.785Z,26.20
2022-08-17T23:39:44.666Z,26.30
2022-08-17T23:42:21.651Z,26.40
2022-08-17T23:44:53.364Z,26.40
2022-08-17T23:47:25.144Z,26.40
2022-08-17T23:49:56.982Z,26.50
2022-08-17T23:52:37.710Z,26.60
2022-08-17T23:55:10.287Z,26.70
2022-08-17T23:57:42.205Z,26.80
